aviador You're here:

ZYTL Decoded Metar

DALIAN in CHINA
Report Time2017-11-25 05:30:00
UTC Time2017-11-25 05:37:59
Flight Rules vfr VFR
Wind310° at 14 kt
W.Decomp.*RWY 28: 11.0 kt HW 8.6 kt RCW
W.Rank310° ranks 12
Current wind is above 310° avg. (8.2)
Visibility9999 m
Phenomena:N/A
Clouds:N/A
Expected CloudBase > 6,800 ft AGL from Temp-Dew spread
CeilingNone
Temp09°C (ISA -5)
Dew Point-8°C (29% RH)
AAT1.1°C
QNH1018 hPa
Density Alt-443 ft
Elevation318 ft
Report Wrong Elevation
Raw Report
METAR ZYTL 250530Z 31007MPS CAVOK 09/M08 Q1018 NOSIG=

Extra information for ZYTL:More info

Metar Taf Metar & Taf Last 4 Metars F.Rules Stats Wind Profile Meteogram Temp Stats Airport Information Weather charts Add Link Nearby VenuesMetar ALERT Operation Metar Decoded Social comments